Time;durP1;ratioP1;P1;durP2;ratioP2;P2;SDS_P1;SDS_P2;PMS_P1;PMS_P2;Temp;Humidity;BMP_temperature;BMP_pressure;BME280_temperature;BME280_humidity;BME280_pressure;Samples;Min_cycle;Max_cycle;Signal;HPM_P1;HPM_P2
2023/04/24 00:00:47;;;;;;;9.10;8.80;;;10.70;99.90;;;;;;5119300;28;20235;-82
2023/04/24 00:03:15;;;;;;;9.10;8.80;;;10.60;99.90;;;;;;5119580;27;20312;-82
2023/04/24 00:05:51;;;;;;;9.10;8.80;;;10.60;99.90;;;;;;5119051;28;20315;-82
2023/04/24 00:08:19;;;;;;;9.30;9.00;;;10.60;99.90;;;;;;5117824;28;20233;-82
2023/04/24 00:10:47;;;;;;;8.90;8.60;;;10.60;99.90;;;;;;5118131;28;20315;-81
2023/04/24 00:13:17;;;;;;;8.90;8.60;;;10.60;99.90;;;;;;5118213;27;20267;-81
2023/04/24 00:15:44;;;;;;;9.00;8.70;;;10.60;99.90;;;;;;5118276;28;20233;-82
2023/04/24 00:18:12;;;;;;;8.90;8.60;;;10.60;99.90;;;;;;5118499;28;20224;-82
2023/04/24 00:20:40;;;;;;;8.80;8.50;;;10.60;99.90;;;;;;5118786;28;20225;-83
2023/04/24 00:23:14;;;;;;;8.80;8.50;;;10.60;99.90;;;;;;5119371;28;20320;-82
2023/04/24 00:25:42;;;;;;;8.90;8.60;;;10.60;99.90;;;;;;5118012;28;20229;-82
2023/04/24 00:28:09;;;;;;;9.00;8.70;;;10.60;99.90;;;;;;5117631;28;20242;-82
2023/04/24 00:30:38;;;;;;;9.00;8.70;;;10.60;99.90;;;;;;5120915;28;20231;-80
2023/04/24 00:33:06;;;;;;;8.90;8.60;;;10.60;99.90;;;;;;5134749;28;21128;-80
2023/04/24 00:35:33;;;;;;;9.00;8.70;;;10.60;99.90;;;;;;5128802;28;20308;-80
2023/04/24 00:38:01;;;;;;;8.90;8.60;;;10.50;99.90;;;;;;5122671;28;20227;-80
2023/04/24 00:40:29;;;;;;;9.20;8.90;;;10.50;99.90;;;;;;5122799;28;20229;-82
2023/04/24 00:42:57;;;;;;;8.80;8.50;;;10.50;99.90;;;;;;5123360;27;20259;-82
2023/04/24 00:45:25;;;;;;;8.90;8.60;;;10.50;99.90;;;;;;5126332;27;20291;-82
2023/04/24 00:47:54;;;;;;;8.83;8.53;;;10.50;99.90;;;;;;5123606;27;20275;-83
2023/04/24 00:50:22;;;;;;;8.80;8.50;;;10.50;99.90;;;;;;5122464;27;20229;-82
2023/04/24 00:52:50;;;;;;;8.90;8.60;;;10.50;99.90;;;;;;5121352;28;20228;-82
2023/04/24 00:55:18;;;;;;;8.87;8.57;;;10.40;99.90;;;;;;5122331;27;20250;-83
2023/04/24 00:57:46;;;;;;;8.93;8.63;;;10.40;99.90;;;;;;5121517;28;20319;-82
2023/04/24 01:00:15;;;;;;;8.80;8.50;;;10.40;99.90;;;;;;5120611;28;20331;-83
2023/04/24 01:02:45;;;;;;;8.77;8.47;;;10.40;99.90;;;;;;5121086;28;20232;-80
2023/04/24 01:05:17;;;;;;;8.80;8.50;;;10.40;99.90;;;;;;5120716;27;20244;-80
2023/04/24 01:07:48;;;;;;;8.90;8.60;;;10.40;99.90;;;;;;5120884;27;20689;-82
2023/04/24 01:10:17;;;;;;;8.90;8.60;;;10.40;99.90;;;;;;5120281;28;20233;-82
2023/04/24 01:12:45;;;;;;;9.10;8.80;;;10.40;99.90;;;;;;5120096;28;20231;-82
2023/04/24 01:15:13;;;;;;;9.30;9.00;;;10.40;99.90;;;;;;5120778;27;20233;-82
2023/04/24 01:17:40;;;;;;;9.30;9.00;;;10.40;99.90;;;;;;5120392;28;20228;-80
2023/04/24 01:20:10;;;;;;;9.20;8.90;;;10.40;99.90;;;;;;5120256;28;20286;-80
2023/04/24 01:22:40;;;;;;;9.03;8.73;;;10.40;99.90;;;;;;5120989;28;20232;-80
2023/04/24 01:25:09;;;;;;;9.03;8.73;;;10.50;99.90;;;;;;5121045;28;20233;-80
2023/04/24 01:27:36;;;;;;;8.93;8.63;;;10.50;99.90;;;;;;5120568;28;20239;-80
2023/04/24 01:30:05;;;;;;;8.90;8.60;;;10.50;99.90;;;;;;5119912;27;20237;-80
2023/04/24 01:32:32;;;;;;;8.73;8.43;;;10.40;99.90;;;;;;5120065;28;20260;-81
2023/04/24 01:35:00;;;;;;;8.90;8.60;;;10.40;99.90;;;;;;5119850;28;20300;-81
2023/04/24 01:37:28;;;;;;;8.90;8.60;;;10.40;99.90;;;;;;5119587;28;20343;-80
2023/04/24 01:39:56;;;;;;;9.00;8.70;;;10.40;99.90;;;;;;5118692;28;20236;-80
2023/04/24 01:42:24;;;;;;;9.00;8.70;;;10.40;99.90;;;;;;5120044;28;20316;-81
2023/04/24 01:44:52;;;;;;;8.90;8.60;;;10.40;99.90;;;;;;5119354;28;20254;-81
2023/04/24 01:47:20;;;;;;;8.80;8.50;;;10.40;99.90;;;;;;5119751;28;20324;-81
2023/04/24 01:49:49;;;;;;;8.80;8.50;;;10.40;99.90;;;;;;5118844;28;20356;-80
2023/04/24 01:52:17;;;;;;;8.80;8.50;;;10.40;99.90;;;;;;5119236;28;20254;-80
2023/04/24 01:54:45;;;;;;;8.80;8.50;;;10.30;99.90;;;;;;5118955;28;20976;-80
2023/04/24 01:57:15;;;;;;;8.73;8.43;;;10.40;99.90;;;;;;5118497;28;20231;-80
2023/04/24 01:59:42;;;;;;;8.90;8.60;;;10.50;99.90;;;;;;5118418;28;20235;-80
2023/04/24 02:02:10;;;;;;;8.90;8.60;;;10.50;99.90;;;;;;5118795;27;20239;-81
2023/04/24 02:04:38;;;;;;;8.80;8.50;;;10.50;99.90;;;;;;5122175;28;20264;-81
2023/04/24 02:07:05;;;;;;;8.90;8.60;;;10.60;99.90;;;;;;5121635;28;20228;-81
2023/04/24 02:09:33;;;;;;;8.80;8.50;;;10.60;99.90;;;;;;5121767;28;20224;-81
2023/04/24 02:12:00;;;;;;;9.07;8.77;;;10.60;99.90;;;;;;5122674;27;20224;-81
2023/04/24 02:14:29;;;;;;;9.00;8.70;;;10.60;99.90;;;;;;5122564;28;20256;-81
2023/04/24 02:16:57;;;;;;;9.10;8.80;;;10.60;99.90;;;;;;5122484;27;20231;-81
2023/04/24 02:19:25;;;;;;;9.03;8.73;;;10.60;99.90;;;;;;5122081;28;20208;-81
2023/04/24 02:21:52;;;;;;;9.00;8.70;;;10.60;99.90;;;;;;5122349;27;20236;-82
2023/04/24 02:24:19;;;;;;;8.90;8.60;;;10.60;99.90;;;;;;5130258;28;20288;-80
2023/04/24 02:26:47;;;;;;;9.10;8.80;;;10.60;99.90;;;;;;5141679;28;20297;-80
2023/04/24 02:29:15;;;;;;;9.00;8.70;;;10.60;99.90;;;;;;5129510;28;20328;-81
2023/04/24 02:31:44;;;;;;;9.07;8.77;;;10.50;99.90;;;;;;5121299;28;20228;-81
2023/04/24 02:34:11;;;;;;;8.80;8.50;;;10.50;99.90;;;;;;5120706;28;20233;-80
2023/04/24 02:36:38;;;;;;;9.17;8.87;;;10.50;99.90;;;;;;5120605;28;20736;-81
2023/04/24 02:39:06;;;;;;;8.90;8.60;;;10.50;99.90;;;;;;5120968;28;20229;-81
2023/04/24 02:41:33;;;;;;;8.97;8.67;;;10.50;99.90;;;;;;5120519;28;20323;-81
2023/04/24 02:44:01;;;;;;;8.80;8.50;;;10.50;99.90;;;;;;5120265;27;20252;-81
2023/04/24 02:46:28;;;;;;;8.83;8.53;;;10.40;99.90;;;;;;5120970;28;20232;-82
2023/04/24 02:48:57;;;;;;;9.00;8.70;;;10.40;99.90;;;;;;5136753;27;20240;-81
2023/04/24 02:51:25;;;;;;;8.80;8.50;;;10.40;99.90;;;;;;5129988;27;20275;-80
2023/04/24 02:53:52;;;;;;;8.57;8.37;;;10.40;99.90;;;;;;5124385;28;20251;-81
2023/04/24 02:56:20;;;;;;;9.00;8.70;;;10.30;99.90;;;;;;5123548;28;20277;-81
2023/04/24 02:58:47;;;;;;;8.90;8.60;;;10.30;99.90;;;;;;5123372;28;20229;-81
2023/04/24 03:01:15;;;;;;;8.90;8.60;;;10.30;99.90;;;;;;5122753;27;20336;-81
2023/04/24 03:03:42;;;;;;;8.90;8.60;;;10.30;99.90;;;;;;5120372;27;20649;-81
2023/04/24 03:06:11;;;;;;;9.00;8.70;;;10.30;99.90;;;;;;5121928;27;20260;-81
2023/04/24 03:08:42;;;;;;;8.90;8.60;;;10.30;99.90;;;;;;5121740;27;20316;-81
2023/04/24 03:11:09;;;;;;;8.73;8.43;;;10.20;99.90;;;;;;5122436;27;20244;-81
2023/04/24 03:13:36;;;;;;;8.80;8.50;;;10.20;99.90;;;;;;5122309;27;20237;-81
2023/04/24 03:16:05;;;;;;;8.87;8.57;;;10.10;99.90;;;;;;5122245;28;20220;-81
2023/04/24 03:18:33;;;;;;;8.40;8.20;;;10.10;99.90;;;;;;5123397;28;20252;-80
2023/04/24 03:21:00;;;;;;;8.40;8.20;;;10.10;99.90;;;;;;5130375;28;20256;-81
2023/04/24 03:23:29;;;;;;;8.60;8.40;;;10.10;99.90;;;;;;5128498;27;20300;-81
2023/04/24 03:25:56;;;;;;;8.40;8.20;;;10.00;99.90;;;;;;5134526;28;20233;-81
2023/04/24 03:28:24;;;;;;;8.43;8.23;;;10.00;99.90;;;;;;5122170;28;20239;-81
2023/04/24 03:30:52;;;;;;;8.57;8.37;;;10.00;99.90;;;;;;5120534;28;20271;-81
2023/04/24 03:33:20;;;;;;;8.30;8.10;;;10.00;99.90;;;;;;5122446;28;20293;-81
2023/04/24 03:35:47;;;;;;;8.43;8.23;;;10.00;99.90;;;;;;5122243;27;20289;-81
2023/04/24 03:38:15;;;;;;;8.60;8.40;;;10.00;99.90;;;;;;5121652;28;20250;-81
2023/04/24 03:40:43;;;;;;;8.50;8.30;;;10.00;99.90;;;;;;5121347;28;20236;-80
2023/04/24 03:43:11;;;;;;;8.40;8.20;;;10.00;99.90;;;;;;5121361;28;20235;-80
2023/04/24 03:45:39;;;;;;;8.40;8.20;;;10.00;99.90;;;;;;5120951;28;20248;-81
2023/04/24 03:48:07;;;;;;;8.37;8.17;;;10.10;99.90;;;;;;5120484;27;20227;-81
2023/04/24 03:50:34;;;;;;;8.40;8.20;;;10.10;99.90;;;;;;5120475;28;20264;-81
2023/04/24 03:53:02;;;;;;;8.30;8.10;;;10.10;99.90;;;;;;5119209;28;20286;-81
2023/04/24 03:55:30;;;;;;;8.40;8.20;;;10.10;99.90;;;;;;5119609;28;20256;-81
2023/04/24 03:57:59;;;;;;;8.57;8.37;;;10.10;99.90;;;;;;5119344;28;20229;-81
2023/04/24 04:00:26;;;;;;;8.83;8.53;;;10.10;99.90;;;;;;5119956;27;20241;-81
2023/04/24 04:02:54;;;;;;;8.50;8.30;;;10.10;99.90;;;;;;5120959;28;20229;-81
2023/04/24 04:05:21;;;;;;;8.53;8.33;;;10.00;99.90;;;;;;5119960;28;20228;-81
2023/04/24 04:07:48;;;;;;;8.60;8.40;;;10.00;99.90;;;;;;5125721;28;20280;-80
2023/04/24 04:10:17;;;;;;;8.57;8.37;;;10.00;99.90;;;;;;5132955;28;20235;-81
2023/04/24 04:12:44;;;;;;;8.80;8.50;;;9.90;99.90;;;;;;5124423;28;20312;-80
2023/04/24 04:15:13;;;;;;;8.57;8.37;;;9.90;99.90;;;;;;5121207;28;20315;-80
2023/04/24 04:17:40;;;;;;;8.40;8.20;;;9.90;99.90;;;;;;5122276;28;20221;-81
2023/04/24 04:20:10;;;;;;;8.40;8.20;;;9.90;99.90;;;;;;5123229;28;20224;-80
2023/04/24 04:22:38;;;;;;;8.47;8.27;;;9.90;99.90;;;;;;5123200;28;20239;-81
2023/04/24 04:25:06;;;;;;;8.40;8.20;;;9.90;99.90;;;;;;5122319;27;20315;-81
2023/04/24 04:27:34;;;;;;;8.40;8.20;;;9.90;99.90;;;;;;5121612;28;20225;-81
2023/04/24 04:30:04;;;;;;;8.63;8.43;;;9.90;99.90;;;;;;5121681;27;20224;-81
2023/04/24 04:32:34;;;;;;;8.67;8.47;;;9.90;99.90;;;;;;5121711;28;20282;-82
2023/04/24 04:35:02;;;;;;;8.40;8.20;;;9.80;99.90;;;;;;5121377;28;20232;-81
2023/04/24 04:37:31;;;;;;;8.20;8.00;;;9.80;99.90;;;;;;5121547;28;20225;-80
2023/04/24 04:39:59;;;;;;;8.27;8.07;;;9.80;99.90;;;;;;5121453;28;20324;-81
2023/04/24 04:42:26;;;;;;;8.20;8.00;;;9.80;99.90;;;;;;5121370;28;20243;-81
2023/04/24 04:44:55;;;;;;;8.10;7.90;;;9.80;99.90;;;;;;5121525;28;20232;-81
2023/04/24 04:47:23;;;;;;;8.00;7.80;;;9.80;99.90;;;;;;5121570;28;20386;-80
2023/04/24 04:49:52;;;;;;;8.10;7.90;;;9.80;99.90;;;;;;5122025;28;20229;-81
2023/04/24 04:52:24;;;;;;;8.10;7.90;;;9.80;99.90;;;;;;5121372;27;20251;-80
2023/04/24 04:54:52;;;;;;;8.13;7.93;;;9.80;99.90;;;;;;5120307;28;20268;-81
2023/04/24 04:57:20;;;;;;;8.20;8.00;;;9.80;99.90;;;;;;5121117;27;20233;-80
2023/04/24 04:59:47;;;;;;;8.20;8.00;;;9.70;99.90;;;;;;5121472;27;20228;-81
2023/04/24 05:02:15;;;;;;;8.10;7.90;;;9.70;99.90;;;;;;5121036;28;20315;-81
2023/04/24 05:04:42;;;;;;;7.97;7.77;;;9.70;99.90;;;;;;5133385;28;20227;-80
2023/04/24 05:07:11;;;;;;;8.10;7.90;;;9.70;99.90;;;;;;5133891;28;20221;-80
2023/04/24 05:09:39;;;;;;;8.10;7.90;;;9.80;99.90;;;;;;5129168;27;20317;-82
2023/04/24 05:12:07;;;;;;;8.17;7.97;;;9.70;99.90;;;;;;5123074;28;20323;-81
2023/04/24 05:14:34;;;;;;;8.10;7.90;;;9.80;99.90;;;;;;5121453;28;20313;-80
2023/04/24 05:17:02;;;;;;;8.30;8.10;;;9.80;99.90;;;;;;5121257;28;20256;-81
2023/04/24 05:19:32;;;;;;;8.27;8.07;;;9.80;99.90;;;;;;5124083;28;20229;-81
2023/04/24 05:22:02;;;;;;;8.20;8.00;;;9.90;99.90;;;;;;5122336;28;20251;-81
2023/04/24 05:24:31;;;;;;;8.10;7.90;;;9.90;99.90;;;;;;5123034;28;20225;-81
2023/04/24 05:26:59;;;;;;;7.90;7.70;;;9.90;99.90;;;;;;5123830;28;20371;-81
2023/04/24 05:29:27;;;;;;;8.13;7.93;;;10.00;99.90;;;;;;5124675;28;20232;-81
2023/04/24 05:31:54;;;;;;;8.10;7.90;;;10.00;99.90;;;;;;5131559;28;20228;-81
2023/04/24 05:34:22;;;;;;;8.20;8.00;;;10.00;99.90;;;;;;5137310;28;20247;-83
2023/04/24 05:36:50;;;;;;;8.07;7.87;;;10.10;99.90;;;;;;5139024;27;20239;-81
2023/04/24 05:39:19;;;;;;;8.20;8.00;;;10.10;99.90;;;;;;5139298;27;20232;-81
2023/04/24 05:41:48;;;;;;;8.17;7.97;;;10.20;99.90;;;;;;5125040;27;20248;-81
2023/04/24 05:44:15;;;;;;;8.00;7.80;;;10.20;99.90;;;;;;5121970;27;20323;-80
2023/04/24 05:46:43;;;;;;;8.00;7.80;;;10.20;99.90;;;;;;5123265;28;20225;-81
2023/04/24 05:49:11;;;;;;;7.90;7.70;;;10.20;99.90;;;;;;5122585;27;20335;-81
2023/04/24 05:51:39;;;;;;;8.00;7.80;;;10.20;99.90;;;;;;5122827;28;20232;-81
2023/04/24 05:54:10;;;;;;;8.10;7.90;;;10.30;99.90;;;;;;5132105;22;20226;-83
2023/04/24 05:56:38;;;;;;;7.90;7.70;;;10.30;99.90;;;;;;5103416;28;20233;-86
2023/04/24 05:59:07;;;;;;;7.83;7.63;;;10.40;99.90;;;;;;5096768;28;20284;-84
2023/04/24 06:01:36;;;;;;;8.20;8.00;;;10.40;99.90;;;;;;5080916;28;20238;-83
2023/04/24 06:04:05;;;;;;;8.30;8.10;;;10.50;99.90;;;;;;5079927;28;20252;-84
2023/04/24 06:06:34;;;;;;;8.27;8.07;;;10.50;99.90;;;;;;5081801;28;20264;-83
2023/04/24 06:09:11;;;;;;;8.67;8.47;;;10.60;99.90;;;;;;5080514;28;20280;-83
2023/04/24 06:11:41;;;;;;;8.60;8.40;;;10.70;99.90;;;;;;5081786;28;20234;-85
2023/04/24 06:14:14;;;;;;;8.70;8.50;;;10.70;99.90;;;;;;5077899;28;20244;-86
2023/04/24 06:16:47;;;;;;;8.60;8.40;;;10.80;99.90;;;;;;5080892;28;20222;-86
2023/04/24 06:19:23;;;;;;;9.00;8.70;;;10.70;99.90;;;;;;5080626;28;20325;-86
2023/04/24 06:21:53;;;;;;;8.90;8.60;;;10.80;99.90;;;;;;5082056;28;20241;-86
2023/04/24 06:24:23;;;;;;;9.00;8.70;;;10.80;99.90;;;;;;5079957;28;20241;-87
2023/04/24 06:27:09;;;;;;;8.77;8.57;;;10.80;99.90;;;;;;5080424;28;20287;-87
2023/04/24 06:29:44;;;;;;;8.83;8.63;;;10.80;99.90;;;;;;5081036;28;20703;-86
2023/04/24 06:32:20;;;;;;;9.07;8.77;;;10.80;99.90;;;;;;5081900;28;20245;-87
2023/04/24 06:34:55;;;;;;;9.00;8.70;;;10.90;99.90;;;;;;5081382;28;20320;-87
2023/04/24 06:37:34;;;;;;;8.97;8.73;;;10.90;99.90;;;;;;5086787;28;20218;-86
2023/04/24 06:40:24;;;;;;;8.63;8.43;;;10.80;99.90;;;;;;5094715;28;20285;-86
2023/04/24 06:42:57;;;;;;;8.23;8.03;;;10.70;99.90;;;;;;5095408;28;20238;-87
2023/04/24 06:48:29;;;;;;;8.60;8.40;;;10.60;99.90;;;;;;5093807;28;20230;-87
2023/04/24 06:51:04;;;;;;;8.27;8.07;;;10.60;99.90;;;;;;5092592;28;20241;-87
2023/04/24 06:53:35;;;;;;;8.40;8.20;;;10.60;99.90;;;;;;5095771;28;20210;-87
2023/04/24 06:56:10;;;;;;;8.57;8.37;;;10.60;99.90;;;;;;5097543;28;20222;-87
2023/04/24 06:58:47;;;;;;;8.50;8.30;;;10.60;99.90;;;;;;5095350;28;20316;-88
2023/04/24 07:01:25;;;;;;;8.50;8.30;;;10.60;99.90;;;;;;5096066;28;20244;-88
2023/04/24 07:04:06;;;;;;;8.70;8.50;;;10.70;99.90;;;;;;5099046;28;20225;-88
2023/04/24 07:06:37;;;;;;;9.00;8.70;;;10.70;99.90;;;;;;5101091;28;20241;-88
2023/04/24 07:09:11;;;;;;;9.20;8.90;;;10.70;99.90;;;;;;5088039;28;20226;-87
2023/04/24 07:11:47;;;;;;;9.70;9.40;;;10.80;99.90;;;;;;5084790;28;20289;-86
2023/04/24 07:14:37;;;;;;;9.63;9.33;;;10.80;99.90;;;;;;5085416;28;20234;-87
2023/04/24 07:17:22;;;;;;;9.80;9.50;;;10.90;99.90;;;;;;5087116;28;20214;-87
2023/04/24 07:20:11;;;;;;;9.70;9.40;;;10.90;99.90;;;;;;5085443;28;20226;-87
2023/04/24 07:22:56;;;;;;;9.57;9.27;;;11.00;99.90;;;;;;5083985;28;20269;-86
2023/04/24 07:25:36;;;;;;;10.07;9.77;;;11.10;99.90;;;;;;5082955;28;20245;-87
2023/04/24 07:31:09;;;;;;;10.10;9.80;;;11.00;99.90;;;;;;5089795;28;20238;-87
2023/04/24 07:33:40;;;;;;;10.20;9.90;;;11.00;99.90;;;;;;5081728;28;20233;-87
2023/04/24 07:39:20;;;;;;;10.33;10.03;;;10.90;99.90;;;;;;5075355;28;20288;-87
2023/04/24 07:42:20;;;;;;;10.60;10.30;;;10.90;99.90;;;;;;5079133;28;20241;-87
2023/04/24 07:45:07;;;;;;;10.70;10.40;;;10.90;99.90;;;;;;5089685;28;20245;-87
2023/04/24 07:47:50;;;;;;;10.77;10.47;;;11.00;99.90;;;;;;5087724;28;20284;-87
2023/04/24 07:50:49;;;;;;;11.00;10.70;;;11.10;99.90;;;;;;5098798;28;20226;-86
2023/04/24 07:57:13;;;;;;;10.70;10.40;;;11.30;99.90;;;;;;5067165;28;20245;-87
2023/04/24 07:59:43;;;;;;;10.40;10.10;;;11.40;99.90;;;;;;5078194;28;20246;-87
2023/04/24 08:25:02;;;;;;;10.60;10.30;;;11.90;99.90;;;;;;5045349;28;20235;-88
2023/04/24 08:31:01;;;;;;;10.90;10.60;;;11.70;99.90;;;;;;4997386;28;20251;-87
2023/04/24 08:33:54;;;;;;;10.60;10.30;;;11.70;99.90;;;;;;5041222;28;20234;-88
2023/04/24 08:37:07;;;;;;;10.77;10.47;;;11.70;99.90;;;;;;5039809;28;20231;-88
2023/04/24 08:39:44;;;;;;;10.73;10.43;;;11.70;99.90;;;;;;5011293;28;20713;-88
2023/04/24 08:42:41;;;;;;;10.37;10.07;;;11.70;99.90;;;;;;5037345;28;20290;-88
2023/04/24 08:45:23;;;;;;;10.30;10.00;;;11.80;99.90;;;;;;5038885;28;20255;-91
2023/04/24 08:47:53;;;;;;;10.30;10.00;;;11.90;99.90;;;;;;5058227;28;20243;-91
2023/04/24 08:50:25;;;;;;;10.30;10.00;;;12.00;99.90;;;;;;5044228;28;20223;-90
2023/04/24 08:53:06;;;;;;;10.33;10.03;;;12.20;99.90;;;;;;5039674;28;20279;-90
2023/04/24 08:55:48;;;;;;;10.30;10.00;;;12.30;99.90;;;;;;5038246;28;20247;-90
2023/04/24 08:58:25;;;;;;;10.60;10.30;;;12.30;99.90;;;;;;5038684;28;20258;-90
2023/04/24 09:01:00;;;;;;;10.77;10.47;;;12.30;99.90;;;;;;5017573;28;20219;-91
2023/04/24 09:03:40;;;;;;;10.60;10.30;;;12.30;99.90;;;;;;5016801;28;20251;-90
2023/04/24 09:06:11;;;;;;;10.87;10.57;;;12.20;99.90;;;;;;5016419;28;20239;-89
2023/04/24 09:28:08;;;;;;;10.00;9.70;;;12.80;99.90;;;;;;4811736;29;20244;-89
2023/04/24 09:34:45;;;;;;;10.30;10.00;;;12.90;99.90;;;;;;4952239;23;21649;-89
2023/04/24 09:37:13;;;;;;;10.03;9.73;;;12.80;99.90;;;;;;5059373;28;20357;-86
2023/04/24 09:39:47;;;;;;;10.23;9.93;;;13.00;99.90;;;;;;5060413;28;20231;-86
2023/04/24 09:42:15;;;;;;;10.37;10.07;;;13.10;99.90;;;;;;5059830;28;20241;-87
2023/04/24 09:44:45;;;;;;;10.23;9.93;;;13.40;99.90;;;;;;5059229;28;20242;-86
2023/04/24 09:47:19;;;;;;;10.00;9.70;;;13.60;99.90;;;;;;5059943;28;20249;-87
2023/04/24 09:49:47;;;;;;;10.00;9.70;;;13.60;99.90;;;;;;5059225;28;20704;-88
2023/04/24 09:53:04;;;;;;;9.60;9.30;;;13.50;99.90;;;;;;5059994;28;20334;-88
2023/04/24 11:57:07;;;;;;;10.20;9.90;;;12.60;99.90;;;;;;5055307;22;20238;-84
2023/04/24 11:59:38;;;;;;;9.93;9.63;;;12.60;99.90;;;;;;5073442;28;20223;-86
2023/04/24 12:02:06;;;;;;;9.97;9.67;;;12.50;99.90;;;;;;5063064;28;20237;-86
2023/04/24 12:04:43;;;;;;;9.90;9.60;;;12.40;99.90;;;;;;5060215;28;20310;-85
2023/04/24 12:07:11;;;;;;;10.30;10.00;;;12.50;99.90;;;;;;5061648;28;20249;-87
2023/04/24 12:09:46;;;;;;;10.20;9.90;;;12.60;99.90;;;;;;5059874;28;20231;-88
2023/04/24 12:12:18;;;;;;;10.00;9.70;;;12.60;99.90;;;;;;5058802;28;20317;-86
2023/04/24 12:14:49;;;;;;;10.20;9.90;;;12.60;99.90;;;;;;5057201;28;20258;-87
2023/04/24 12:17:17;;;;;;;10.20;9.90;;;12.80;99.90;;;;;;5060976;28;20223;-86
2023/04/24 12:19:50;;;;;;;10.50;10.20;;;13.00;99.90;;;;;;5057957;28;20321;-87
2023/04/24 12:22:18;;;;;;;10.47;10.17;;;13.10;99.90;;;;;;5058874;28;20223;-86
2023/04/24 12:25:05;;;;;;;10.43;10.13;;;13.40;99.90;;;;;;5060264;28;20262;-84
2023/04/24 12:27:34;;;;;;;10.40;10.10;;;13.30;99.90;;;;;;5062148;28;20269;-83
2023/04/24 12:30:06;;;;;;;10.30;10.00;;;13.30;99.90;;;;;;5060847;28;20238;-83
2023/04/24 12:32:33;;;;;;;10.30;10.00;;;13.30;99.90;;;;;;5061544;28;20231;-84
2023/04/24 12:35:05;;;;;;;10.10;9.80;;;13.60;99.90;;;;;;5061330;28;20405;-84
2023/04/24 12:37:45;;;;;;;9.67;9.37;;;13.70;99.90;;;;;;5059737;28;20250;-88
2023/04/24 12:40:14;;;;;;;9.80;9.50;;;13.50;99.90;;;;;;5060769;28;20230;-84
2023/04/24 12:42:46;;;;;;;9.60;9.30;;;13.40;99.90;;;;;;5061276;28;20279;-84
2023/04/24 12:45:16;;;;;;;9.87;9.57;;;13.30;99.90;;;;;;5062178;28;20298;-84
2023/04/24 12:47:45;;;;;;;9.63;9.33;;;13.30;99.90;;;;;;5062135;28;20234;-84
2023/04/24 12:50:14;;;;;;;9.83;9.53;;;13.50;99.90;;;;;;5062154;28;20223;-87
2023/04/24 12:52:44;;;;;;;9.50;9.20;;;13.50;99.90;;;;;;5063071;28;20274;-86
2023/04/24 12:55:11;;;;;;;9.73;9.43;;;13.50;99.90;;;;;;5045921;28;20238;-86
2023/04/24 12:57:41;;;;;;;10.20;9.90;;;13.30;99.90;;;;;;5041276;28;20321;-87
2023/04/24 13:00:12;;;;;;;9.90;9.60;;;13.20;99.90;;;;;;5043794;28;20223;-87
2023/04/24 13:02:42;;;;;;;10.10;9.80;;;13.20;99.90;;;;;;5040994;28;20216;-87
2023/04/24 13:05:11;;;;;;;10.03;9.73;;;13.40;99.90;;;;;;5036098;28;20290;-87
2023/04/24 13:07:45;;;;;;;9.93;9.63;;;13.60;99.90;;;;;;5037019;28;20227;-87
2023/04/24 13:10:14;;;;;;;10.00;9.70;;;14.00;99.90;;;;;;5037096;28;20235;-87
2023/04/24 13:12:45;;;;;;;10.20;9.90;;;14.10;99.90;;;;;;5035938;28;20387;-88
2023/04/24 13:15:15;;;;;;;9.97;9.67;;;13.70;99.90;;;;;;5037032;28;20231;-87
2023/04/24 13:17:42;;;;;;;9.93;9.63;;;13.50;99.90;;;;;;5056387;28;20241;-86
2023/04/24 13:20:13;;;;;;;9.77;9.47;;;13.30;99.90;;;;;;5056942;28;20235;-86
2023/04/24 13:25:39;;;;;;;9.80;9.50;;;12.90;99.90;;;;;;5055210;28;20242;-86
2023/04/24 13:28:07;;;;;;;9.47;9.17;;;12.60;99.90;;;;;;5056549;28;20233;-86
2023/04/24 13:30:48;;;;;;;9.70;9.40;;;12.50;99.90;;;;;;5054154;28;20293;-85
2023/04/24 13:33:19;;;;;;;10.17;9.87;;;12.50;99.90;;;;;;5041982;28;20233;-87
2023/04/24 13:35:46;;;;;;;10.03;9.73;;;12.60;99.90;;;;;;5040779;28;20294;-85
2023/04/24 13:38:14;;;;;;;10.03;9.73;;;12.80;99.90;;;;;;5058223;28;20235;-85
2023/04/24 13:40:42;;;;;;;9.50;9.20;;;12.90;99.90;;;;;;5057382;28;20230;-85
2023/04/24 13:43:09;;;;;;;9.77;9.47;;;12.90;99.90;;;;;;5057352;28;20227;-84
2023/04/24 13:45:39;;;;;;;9.83;9.53;;;12.70;99.90;;;;;;5065224;28;20234;-85
2023/04/24 13:48:08;;;;;;;9.90;9.60;;;12.30;99.90;;;;;;5076711;28;20229;-84
2023/04/24 13:50:36;;;;;;;9.80;9.50;;;11.90;99.90;;;;;;5070534;28;20242;-87
2023/04/24 13:53:05;;;;;;;9.70;9.40;;;11.80;99.90;;;;;;5056278;28;20222;-87
2023/04/24 13:55:32;;;;;;;9.90;9.60;;;11.70;99.90;;;;;;5055726;28;20270;-88
2023/04/24 13:58:01;;;;;;;10.00;9.70;;;11.70;99.90;;;;;;5055362;28;20258;-87
2023/04/24 14:00:29;;;;;;;10.07;9.77;;;11.80;99.90;;;;;;5059074;28;20238;-87
2023/04/24 14:02:58;;;;;;;10.10;9.80;;;11.80;99.90;;;;;;5059242;28;20262;-86
2023/04/24 14:05:25;;;;;;;10.00;9.70;;;11.90;99.90;;;;;;5058475;28;20325;-86
2023/04/24 14:07:53;;;;;;;10.10;9.80;;;12.10;99.90;;;;;;5057866;28;20246;-87
2023/04/24 14:10:21;;;;;;;9.90;9.60;;;12.30;99.90;;;;;;5058281;28;20243;-88
2023/04/24 14:12:48;;;;;;;9.80;9.50;;;12.80;99.90;;;;;;5057891;28;20269;-88
2023/04/24 14:15:16;;;;;;;10.20;9.90;;;13.10;99.90;;;;;;5043661;28;20235;-87
2023/04/24 14:17:44;;;;;;;9.83;9.53;;;13.20;99.90;;;;;;5041518;28;20232;-87
2023/04/24 14:20:16;;;;;;;10.10;9.80;;;13.50;99.90;;;;;;5062123;28;20239;-87
2023/04/24 14:22:44;;;;;;;10.10;9.80;;;13.30;99.90;;;;;;5062868;28;20330;-85
2023/04/24 14:25:11;;;;;;;9.87;9.57;;;13.40;99.90;;;;;;5058796;28;20238;-87
2023/04/24 14:27:39;;;;;;;9.93;9.63;;;13.60;99.90;;;;;;5059391;28;20301;-86
2023/04/24 14:30:09;;;;;;;10.10;9.80;;;13.40;99.90;;;;;;5059980;28;20313;-86
2023/04/24 14:32:37;;;;;;;10.30;10.00;;;13.50;99.90;;;;;;5059452;28;20222;-87
2023/04/24 14:35:06;;;;;;;10.00;9.70;;;13.50;99.90;;;;;;5059192;28;20237;-87
2023/04/24 14:37:35;;;;;;;9.87;9.57;;;13.40;99.90;;;;;;5060450;28;20270;-87
2023/04/24 14:40:06;;;;;;;10.30;10.00;;;13.40;99.90;;;;;;5061578;28;20262;-86
2023/04/24 14:42:34;;;;;;;10.10;9.80;;;13.80;99.90;;;;;;5064395;28;20266;-86
2023/04/24 14:45:04;;;;;;;9.80;9.50;;;14.00;99.90;;;;;;5070048;28;20333;-85
2023/04/24 14:47:32;;;;;;;9.80;9.50;;;14.00;99.90;;;;;;5068394;28;20235;-84
2023/04/24 14:50:00;;;;;;;10.07;9.77;;;13.60;99.90;;;;;;5065293;28;20230;-86
2023/04/24 14:52:28;;;;;;;10.03;9.73;;;13.50;99.90;;;;;;5062220;28;20266;-86
2023/04/24 14:54:57;;;;;;;10.50;10.20;;;13.80;99.90;;;;;;5045478;28;20230;-87
2023/04/24 14:57:25;;;;;;;10.30;10.00;;;14.10;99.90;;;;;;5060718;28;20238;-85
2023/04/24 14:59:54;;;;;;;10.40;10.10;;;14.50;99.90;;;;;;5061733;28;20285;-86
2023/04/24 15:02:21;;;;;;;10.20;9.90;;;14.60;99.90;;;;;;5062213;28;20269;-86
2023/04/24 15:04:49;;;;;;;10.50;10.20;;;14.60;99.90;;;;;;5061127;28;20311;-85
2023/04/24 15:07:16;;;;;;;10.50;10.20;;;14.60;99.90;;;;;;5065267;28;20237;-84
2023/04/24 15:09:44;;;;;;;10.40;10.10;;;14.90;99.90;;;;;;5069456;28;20230;-84
2023/04/24 15:12:13;;;;;;;10.43;10.13;;;15.10;99.90;;;;;;5071131;28;20286;-84
2023/04/24 15:14:40;;;;;;;10.40;10.10;;;15.40;99.90;;;;;;5049992;28;20227;-84
2023/04/24 15:17:08;;;;;;;10.38;10.07;;;15.40;99.90;;;;;;5058673;28;20250;-82
2023/04/24 15:19:35;;;;;;;10.15;9.85;;;15.30;99.90;;;;;;5059805;28;20322;-87
2023/04/24 15:22:03;;;;;;;10.27;9.98;;;15.40;99.90;;;;;;5059751;28;20269;-86
2023/04/24 15:24:31;;;;;;;10.30;10.00;;;15.40;99.90;;;;;;5059352;28;20249;-87
2023/04/24 15:27:01;;;;;;;10.25;9.95;;;15.50;99.90;;;;;;5059603;28;20329;-88
2023/04/24 15:29:30;;;;;;;10.00;9.70;;;15.50;99.90;;;;;;5060130;28;20230;-89
2023/04/24 15:31:59;;;;;;;10.18;9.88;;;15.40;99.90;;;;;;5068845;28;20250;-88
2023/04/24 15:34:27;;;;;;;10.50;10.20;;;15.10;99.90;;;;;;5062754;28;20230;-89
2023/04/24 15:36:54;;;;;;;10.00;9.70;;;14.80;99.90;;;;;;5062132;28;20242;-89
2023/04/24 15:39:24;;;;;;;10.07;9.77;;;14.80;99.90;;;;;;5060535;28;20231;-89
2023/04/24 15:41:55;;;;;;;10.03;9.73;;;14.60;99.90;;;;;;5060760;28;20279;-86
2023/04/24 15:44:29;;;;;;;10.20;9.90;;;14.50;99.90;;;;;;5060372;28;20227;-85
2023/04/24 15:47:04;;;;;;;10.30;10.00;;;14.20;99.90;;;;;;5060966;28;20351;-87
2023/04/24 15:49:33;;;;;;;10.07;9.77;;;13.90;99.90;;;;;;5065989;28;20238;-85
2023/04/24 15:52:00;;;;;;;10.30;10.00;;;13.70;99.90;;;;;;5078970;28;20222;-86
2023/04/24 15:54:30;;;;;;;9.80;9.50;;;13.50;99.90;;;;;;5079530;28;20254;-85
2023/04/24 15:56:57;;;;;;;9.73;9.43;;;13.30;99.90;;;;;;5079051;28;20219;-86
2023/04/24 15:59:25;;;;;;;10.00;9.70;;;13.10;99.90;;;;;;5078488;28;20227;-84
2023/04/24 16:01:55;;;;;;;9.80;9.50;;;13.00;99.90;;;;;;5078897;28;20215;-85
2023/04/24 16:04:23;;;;;;;9.37;9.07;;;12.70;99.90;;;;;;5079076;28;20215;-84
2023/04/24 16:06:51;;;;;;;9.40;9.10;;;12.50;99.90;;;;;;5079010;28;20229;-84